sensor_id;sensor_type;location;lat;lon;timestamp;P1;durP1;ratioP1;P2;durP2;ratioP2
61473;SDS011;53694;49.784;30.150;2022-12-17T00:00:51;6.40;;;4.46;;
61473;SDS011;53694;49.784;30.150;2022-12-17T00:01:52;6.02;;;2.53;;
61473;SDS011;53694;49.784;30.150;2022-12-17T00:02:55;4.95;;;2.26;;
61473;SDS011;53694;49.784;30.150;2022-12-17T00:03:58;5.14;;;2.26;;
61473;SDS011;53694;49.784;30.150;2022-12-17T00:04:59;5.26;;;2.47;;
61473;SDS011;53694;49.784;30.150;2022-12-17T00:06:01;5.49;;;2.26;;
61473;SDS011;53694;49.784;30.150;2022-12-17T00:07:03;6.50;;;2.46;;
61473;SDS011;53694;49.784;30.150;2022-12-17T00:08:04;5.26;;;2.47;;
61473;SDS011;53694;49.784;30.150;2022-12-17T00:09:06;5.16;;;2.19;;
61473;SDS011;53694;49.784;30.150;2022-12-17T00:10:07;4.92;;;2.25;;
61473;SDS011;53694;49.784;30.150;2022-12-17T00:11:10;5.84;;;2.55;;
61473;SDS011;53694;49.784;30.150;2022-12-17T00:12:11;4.31;;;2.33;;
61473;SDS011;53694;49.784;30.150;2022-12-17T00:13:19;4.79;;;2.12;;
61473;SDS011;53694;49.784;30.150;2022-12-17T00:14:22;5.13;;;2.46;;
61473;SDS011;53694;49.784;30.150;2022-12-17T00:15:23;6.54;;;2.74;;
61473;SDS011;53694;49.784;30.150;2022-12-17T00:16:25;5.84;;;3.06;;
61473;SDS011;53694;49.784;30.150;2022-12-17T00:17:26;6.40;;;2.74;;
61473;SDS011;53694;49.784;30.150;2022-12-17T00:18:28;4.74;;;2.36;;
61473;SDS011;53694;49.784;30.150;2022-12-17T00:19:29;5.39;;;2.60;;
61473;SDS011;53694;49.784;30.150;2022-12-17T00:20:31;5.91;;;2.99;;
61473;SDS011;53694;49.784;30.150;2022-12-17T00:21:33;5.49;;;2.51;;
61473;SDS011;53694;49.784;30.150;2022-12-17T00:22:34;5.08;;;2.72;;
61473;SDS011;53694;49.784;30.150;2022-12-17T00:23:36;5.71;;;3.34;;
61473;SDS011;53694;49.784;30.150;2022-12-17T00:24:37;7.04;;;3.14;;
61473;SDS011;53694;49.784;30.150;2022-12-17T00:25:39;6.09;;;2.98;;
61473;SDS011;53694;49.784;30.150;2022-12-17T00:26:40;5.55;;;3.04;;
61473;SDS011;53694;49.784;30.150;2022-12-17T00:27:42;5.71;;;2.92;;
61473;SDS011;53694;49.784;30.150;2022-12-17T00:28:43;4.78;;;2.51;;
61473;SDS011;53694;49.784;30.150;2022-12-17T00:29:45;4.34;;;2.24;;
61473;SDS011;53694;49.784;30.150;2022-12-17T00:30:50;5.13;;;2.42;;
61473;SDS011;53694;49.784;30.150;2022-12-17T00:31:52;4.92;;;2.61;;
61473;SDS011;53694;49.784;30.150;2022-12-17T00:32:54;5.14;;;2.52;;
61473;SDS011;53694;49.784;30.150;2022-12-17T00:33:55;6.26;;;2.81;;
61473;SDS011;53694;49.784;30.150;2022-12-17T00:34:57;4.61;;;2.34;;
61473;SDS011;53694;49.784;30.150;2022-12-17T00:35:58;5.04;;;2.39;;
61473;SDS011;53694;49.784;30.150;2022-12-17T00:37:00;5.27;;;2.49;;
61473;SDS011;53694;49.784;30.150;2022-12-17T00:38:01;4.93;;;2.44;;
61473;SDS011;53694;49.784;30.150;2022-12-17T00:39:03;5.07;;;2.59;;
61473;SDS011;53694;49.784;30.150;2022-12-17T00:40:06;4.34;;;2.42;;
61473;SDS011;53694;49.784;30.150;2022-12-17T00:41:09;7.46;;;2.52;;
61473;SDS011;53694;49.784;30.150;2022-12-17T00:42:10;5.50;;;2.58;;
61473;SDS011;53694;49.784;30.150;2022-12-17T00:43:12;5.51;;;2.69;;
61473;SDS011;53694;49.784;30.150;2022-12-17T00:44:13;5.07;;;2.42;;
61473;SDS011;53694;49.784;30.150;2022-12-17T00:45:15;12.51;;;6.60;;
61473;SDS011;53694;49.784;30.150;2022-12-17T00:46:16;11.35;;;6.47;;
61473;SDS011;53694;49.784;30.150;2022-12-17T00:47:18;9.09;;;4.62;;
61473;SDS011;53694;49.784;30.150;2022-12-17T00:48:19;7.61;;;4.53;;
61473;SDS011;53694;49.784;30.150;2022-12-17T00:49:21;6.64;;;3.49;;
61473;SDS011;53694;49.784;30.150;2022-12-17T00:50:22;7.10;;;3.30;;
61473;SDS011;53694;49.784;30.150;2022-12-17T00:51:24;5.29;;;2.61;;
61473;SDS011;53694;49.784;30.150;2022-12-17T00:52:26;4.26;;;2.49;;
61473;SDS011;53694;49.784;30.150;2022-12-17T00:53:28;4.75;;;2.46;;
61473;SDS011;53694;49.784;30.150;2022-12-17T00:54:29;6.31;;;3.07;;
61473;SDS011;53694;49.784;30.150;2022-12-17T00:55:30;5.87;;;2.83;;
61473;SDS011;53694;49.784;30.150;2022-12-17T00:56:32;7.13;;;2.74;;
61473;SDS011;53694;49.784;30.150;2022-12-17T00:57:34;5.70;;;3.27;;
61473;SDS011;53694;49.784;30.150;2022-12-17T00:58:35;5.66;;;2.83;;
61473;SDS011;53694;49.784;30.150;2022-12-17T00:59:37;5.21;;;2.94;;
61473;SDS011;53694;49.784;30.150;2022-12-17T01:00:38;7.86;;;3.11;;
61473;SDS011;53694;49.784;30.150;2022-12-17T01:01:41;7.50;;;3.57;;
61473;SDS011;53694;49.784;30.150;2022-12-17T01:02:42;6.07;;;3.24;;
61473;SDS011;53694;49.784;30.150;2022-12-17T01:03:44;6.82;;;2.99;;
61473;SDS011;53694;49.784;30.150;2022-12-17T01:04:45;7.41;;;3.57;;
61473;SDS011;53694;49.784;30.150;2022-12-17T01:05:47;6.63;;;3.01;;
61473;SDS011;53694;49.784;30.150;2022-12-17T01:06:49;6.73;;;3.30;;
61473;SDS011;53694;49.784;30.150;2022-12-17T01:07:50;7.37;;;3.31;;
61473;SDS011;53694;49.784;30.150;2022-12-17T01:08:52;9.01;;;4.04;;
61473;SDS011;53694;49.784;30.150;2022-12-17T01:09:53;8.53;;;4.41;;
61473;SDS011;53694;49.784;30.150;2022-12-17T01:11:03;7.59;;;3.67;;
61473;SDS011;53694;49.784;30.150;2022-12-17T01:12:06;6.59;;;3.18;;
61473;SDS011;53694;49.784;30.150;2022-12-17T01:13:07;8.01;;;3.76;;
61473;SDS011;53694;49.784;30.150;2022-12-17T01:14:11;9.88;;;4.08;;
61473;SDS011;53694;49.784;30.150;2022-12-17T01:15:12;7.25;;;3.50;;
61473;SDS011;53694;49.784;30.150;2022-12-17T01:16:14;5.91;;;3.18;;
61473;SDS011;53694;49.784;30.150;2022-12-17T01:17:16;7.11;;;3.48;;
61473;SDS011;53694;49.784;30.150;2022-12-17T01:18:18;7.24;;;3.31;;
61473;SDS011;53694;49.784;30.150;2022-12-17T01:19:20;8.86;;;3.68;;
61473;SDS011;53694;49.784;30.150;2022-12-17T01:20:22;6.35;;;3.27;;
61473;SDS011;53694;49.784;30.150;2022-12-17T01:21:23;7.49;;;3.58;;
61473;SDS011;53694;49.784;30.150;2022-12-17T01:22:25;9.72;;;4.69;;
61473;SDS011;53694;49.784;30.150;2022-12-17T01:23:27;9.04;;;4.98;;
61473;SDS011;53694;49.784;30.150;2022-12-17T01:24:28;10.36;;;4.92;;
61473;SDS011;53694;49.784;30.150;2022-12-17T01:25:30;8.37;;;4.19;;
61473;SDS011;53694;49.784;30.150;2022-12-17T01:26:32;16.76;;;6.51;;
61473;SDS011;53694;49.784;30.150;2022-12-17T01:27:33;12.82;;;6.38;;
61473;SDS011;53694;49.784;30.150;2022-12-17T01:28:35;11.94;;;6.09;;
61473;SDS011;53694;49.784;30.150;2022-12-17T01:29:36;9.02;;;4.80;;
61473;SDS011;53694;49.784;30.150;2022-12-17T01:30:38;6.52;;;3.37;;
61473;SDS011;53694;49.784;30.150;2022-12-17T01:31:39;5.69;;;3.09;;
61473;SDS011;53694;49.784;30.150;2022-12-17T01:32:41;6.38;;;3.40;;
61473;SDS011;53694;49.784;30.150;2022-12-17T01:33:42;7.99;;;3.35;;
61473;SDS011;53694;49.784;30.150;2022-12-17T01:34:44;5.15;;;2.64;;
61473;SDS011;53694;49.784;30.150;2022-12-17T01:35:45;5.85;;;3.09;;
61473;SDS011;53694;49.784;30.150;2022-12-17T01:36:47;6.37;;;3.16;;
61473;SDS011;53694;49.784;30.150;2022-12-17T01:37:48;5.39;;;2.89;;
61473;SDS011;53694;49.784;30.150;2022-12-17T01:38:50;4.96;;;2.65;;
61473;SDS011;53694;49.784;30.150;2022-12-17T01:39:51;5.27;;;2.61;;
61473;SDS011;53694;49.784;30.150;2022-12-17T01:40:53;7.41;;;3.23;;
61473;SDS011;53694;49.784;30.150;2022-12-17T01:41:54;5.72;;;2.85;;
61473;SDS011;53694;49.784;30.150;2022-12-17T01:42:56;7.40;;;3.19;;
61473;SDS011;53694;49.784;30.150;2022-12-17T01:43:57;4.79;;;2.49;;
61473;SDS011;53694;49.784;30.150;2022-12-17T01:44:59;6.16;;;3.13;;
61473;SDS011;53694;49.784;30.150;2022-12-17T01:46:02;5.13;;;2.56;;
61473;SDS011;53694;49.784;30.150;2022-12-17T01:47:03;4.93;;;2.53;;
61473;SDS011;53694;49.784;30.150;2022-12-17T01:48:10;7.42;;;3.27;;
61473;SDS011;53694;49.784;30.150;2022-12-17T01:49:17;6.62;;;3.23;;
61473;SDS011;53694;49.784;30.150;2022-12-17T01:50:21;5.83;;;2.82;;
61473;SDS011;53694;49.784;30.150;2022-12-17T01:51:26;5.82;;;3.04;;
61473;SDS011;53694;49.784;30.150;2022-12-17T01:52:29;5.40;;;3.02;;
61473;SDS011;53694;49.784;30.150;2022-12-17T01:53:34;6.83;;;3.49;;
61473;SDS011;53694;49.784;30.150;2022-12-17T01:54:36;7.46;;;3.54;;
61473;SDS011;53694;49.784;30.150;2022-12-17T01:55:39;7.56;;;3.87;;
61473;SDS011;53694;49.784;30.150;2022-12-17T01:56:41;6.03;;;3.04;;
61473;SDS011;53694;49.784;30.150;2022-12-17T01:57:43;5.83;;;3.07;;
61473;SDS011;53694;49.784;30.150;2022-12-17T01:58:45;5.30;;;2.63;;
61473;SDS011;53694;49.784;30.150;2022-12-17T02:00:00;5.38;;;2.85;;
61473;SDS011;53694;49.784;30.150;2022-12-17T02:01:07;5.56;;;2.59;;
61473;SDS011;53694;49.784;30.150;2022-12-17T02:02:09;4.78;;;2.43;;
61473;SDS011;53694;49.784;30.150;2022-12-17T02:03:15;4.41;;;2.39;;
61473;SDS011;53694;49.784;30.150;2022-12-17T02:04:18;4.84;;;2.28;;
61473;SDS011;53694;49.784;30.150;2022-12-17T02:05:20;4.85;;;2.47;;
61473;SDS011;53694;49.784;30.150;2022-12-17T02:06:25;6.08;;;2.54;;
61473;SDS011;53694;49.784;30.150;2022-12-17T02:11:25;4.38;;;2.03;;
61473;SDS011;53694;49.784;30.150;2022-12-17T02:13:49;5.11;;;2.27;;
61473;SDS011;53694;49.784;30.150;2022-12-17T02:14:52;5.18;;;2.66;;
61473;SDS011;53694;49.784;30.150;2022-12-17T02:16:04;4.95;;;2.63;;
61473;SDS011;53694;49.784;30.150;2022-12-17T02:17:16;5.22;;;2.81;;
61473;SDS011;53694;49.784;30.150;2022-12-17T02:18:21;5.03;;;2.68;;
61473;SDS011;53694;49.784;30.150;2022-12-17T02:19:44;4.57;;;2.39;;
61473;SDS011;53694;49.784;30.150;2022-12-17T02:20:58;6.35;;;3.10;;
61473;SDS011;53694;49.784;30.150;2022-12-17T02:22:08;5.16;;;2.99;;
61473;SDS011;53694;49.784;30.150;2022-12-17T02:25:48;5.43;;;2.94;;
61473;SDS011;53694;49.784;30.150;2022-12-17T02:27:00;5.31;;;2.55;;
61473;SDS011;53694;49.784;30.150;2022-12-17T02:28:03;7.08;;;3.65;;
61473;SDS011;53694;49.784;30.150;2022-12-17T02:29:05;7.03;;;3.44;;
61473;SDS011;53694;49.784;30.150;2022-12-17T02:30:09;7.12;;;3.61;;
61473;SDS011;53694;49.784;30.150;2022-12-17T02:31:11;5.50;;;2.93;;
61473;SDS011;53694;49.784;30.150;2022-12-17T02:32:15;9.49;;;2.98;;
61473;SDS011;53694;49.784;30.150;2022-12-17T02:33:19;5.91;;;2.75;;
61473;SDS011;53694;49.784;30.150;2022-12-17T02:34:22;4.47;;;2.36;;
61473;SDS011;53694;49.784;30.150;2022-12-17T02:35:31;4.51;;;2.15;;
61473;SDS011;53694;49.784;30.150;2022-12-17T02:36:35;4.42;;;2.03;;
61473;SDS011;53694;49.784;30.150;2022-12-17T02:37:37;4.45;;;2.15;;
61473;SDS011;53694;49.784;30.150;2022-12-17T02:38:38;3.94;;;1.93;;
61473;SDS011;53694;49.784;30.150;2022-12-17T02:39:40;5.61;;;2.54;;
61473;SDS011;53694;49.784;30.150;2022-12-17T02:40:42;8.11;;;2.67;;
61473;SDS011;53694;49.784;30.150;2022-12-17T02:41:49;5.29;;;2.40;;
61473;SDS011;53694;49.784;30.150;2022-12-17T02:42:52;5.01;;;2.59;;
61473;SDS011;53694;49.784;30.150;2022-12-17T02:43:53;5.21;;;2.61;;
61473;SDS011;53694;49.784;30.150;2022-12-17T02:44:56;5.43;;;2.48;;
61473;SDS011;53694;49.784;30.150;2022-12-17T02:45:58;6.45;;;2.86;;
61473;SDS011;53694;49.784;30.150;2022-12-17T02:47:01;8.26;;;2.53;;
61473;SDS011;53694;49.784;30.150;2022-12-17T02:48:05;5.38;;;2.67;;
61473;SDS011;53694;49.784;30.150;2022-12-17T02:49:09;4.70;;;2.49;;
61473;SDS011;53694;49.784;30.150;2022-12-17T02:50:12;4.86;;;2.80;;
61473;SDS011;53694;49.784;30.150;2022-12-17T02:51:14;5.12;;;2.65;;
61473;SDS011;53694;49.784;30.150;2022-12-17T02:52:20;6.18;;;3.71;;
61473;SDS011;53694;49.784;30.150;2022-12-17T02:53:20;4.68;;;2.51;;
61473;SDS011;53694;49.784;30.150;2022-12-17T02:54:22;5.78;;;2.48;;
61473;SDS011;53694;49.784;30.150;2022-12-17T02:55:23;5.96;;;2.47;;
61473;SDS011;53694;49.784;30.150;2022-12-17T02:56:25;5.36;;;2.72;;
61473;SDS011;53694;49.784;30.150;2022-12-17T02:57:26;5.27;;;2.53;;
61473;SDS011;53694;49.784;30.150;2022-12-17T02:58:28;4.58;;;2.46;;
61473;SDS011;53694;49.784;30.150;2022-12-17T02:59:29;3.96;;;2.07;;
61473;SDS011;53694;49.784;30.150;2022-12-17T03:00:31;5.16;;;2.27;;
61473;SDS011;53694;49.784;30.150;2022-12-17T03:01:33;6.52;;;2.84;;
61473;SDS011;53694;49.784;30.150;2022-12-17T03:02:34;8.06;;;4.17;;
61473;SDS011;53694;49.784;30.150;2022-12-17T03:03:36;13.73;;;6.19;;
61473;SDS011;53694;49.784;30.150;2022-12-17T03:04:37;14.23;;;5.81;;
61473;SDS011;53694;49.784;30.150;2022-12-17T03:05:39;15.74;;;7.76;;
61473;SDS011;53694;49.784;30.150;2022-12-17T03:06:43;18.39;;;9.04;;
61473;SDS011;53694;49.784;30.150;2022-12-17T03:07:45;26.67;;;14.07;;
61473;SDS011;53694;49.784;30.150;2022-12-17T03:08:47;33.30;;;16.35;;
61473;SDS011;53694;49.784;30.150;2022-12-17T03:09:48;26.89;;;15.39;;
61473;SDS011;53694;49.784;30.150;2022-12-17T03:10:50;19.21;;;10.26;;
61473;SDS011;53694;49.784;30.150;2022-12-17T03:11:51;17.62;;;9.52;;
61473;SDS011;53694;49.784;30.150;2022-12-17T03:12:53;22.54;;;11.72;;
61473;SDS011;53694;49.784;30.150;2022-12-17T03:13:54;18.78;;;10.22;;
61473;SDS011;53694;49.784;30.150;2022-12-17T03:15:02;11.68;;;5.93;;
61473;SDS011;53694;49.784;30.150;2022-12-17T03:16:08;10.81;;;6.07;;
61473;SDS011;53694;49.784;30.150;2022-12-17T03:17:11;13.04;;;5.87;;
61473;SDS011;53694;49.784;30.150;2022-12-17T03:18:13;12.93;;;7.02;;
61473;SDS011;53694;49.784;30.150;2022-12-17T03:19:14;13.34;;;7.69;;
61473;SDS011;53694;49.784;30.150;2022-12-17T03:20:16;11.17;;;6.56;;
61473;SDS011;53694;49.784;30.150;2022-12-17T03:21:18;7.15;;;3.76;;
61473;SDS011;53694;49.784;30.150;2022-12-17T03:22:19;6.56;;;3.93;;
61473;SDS011;53694;49.784;30.150;2022-12-17T03:23:20;7.86;;;4.36;;
61473;SDS011;53694;49.784;30.150;2022-12-17T03:24:22;8.08;;;4.44;;
61473;SDS011;53694;49.784;30.150;2022-12-17T03:25:23;7.85;;;4.43;;
61473;SDS011;53694;49.784;30.150;2022-12-17T03:26:25;7.99;;;4.03;;
61473;SDS011;53694;49.784;30.150;2022-12-17T03:27:26;8.97;;;4.39;;
61473;SDS011;53694;49.784;30.150;2022-12-17T03:28:28;11.69;;;5.10;;
61473;SDS011;53694;49.784;30.150;2022-12-17T03:29:29;11.71;;;6.29;;
61473;SDS011;53694;49.784;30.150;2022-12-17T03:30:31;16.36;;;8.73;;
61473;SDS011;53694;49.784;30.150;2022-12-17T03:31:33;22.06;;;10.66;;
61473;SDS011;53694;49.784;30.150;2022-12-17T03:32:35;12.03;;;6.68;;
61473;SDS011;53694;49.784;30.150;2022-12-17T03:33:36;12.36;;;5.64;;
61473;SDS011;53694;49.784;30.150;2022-12-17T03:34:38;8.79;;;4.81;;
61473;SDS011;53694;49.784;30.150;2022-12-17T03:35:39;8.63;;;4.96;;
61473;SDS011;53694;49.784;30.150;2022-12-17T03:36:41;13.22;;;6.24;;
61473;SDS011;53694;49.784;30.150;2022-12-17T03:37:42;11.91;;;6.78;;
61473;SDS011;53694;49.784;30.150;2022-12-17T03:38:44;9.73;;;4.56;;
61473;SDS011;53694;49.784;30.150;2022-12-17T03:39:46;7.49;;;3.96;;
61473;SDS011;53694;49.784;30.150;2022-12-17T03:40:50;9.39;;;5.21;;
61473;SDS011;53694;49.784;30.150;2022-12-17T03:41:52;13.77;;;6.32;;
61473;SDS011;53694;49.784;30.150;2022-12-17T03:42:53;7.84;;;4.54;;
61473;SDS011;53694;49.784;30.150;2022-12-17T03:43:55;8.46;;;4.32;;
61473;SDS011;53694;49.784;30.150;2022-12-17T03:44:56;9.18;;;4.04;;
61473;SDS011;53694;49.784;30.150;2022-12-17T03:45:58;8.56;;;4.14;;
61473;SDS011;53694;49.784;30.150;2022-12-17T03:47:00;10.19;;;4.53;;
61473;SDS011;53694;49.784;30.150;2022-12-17T03:48:05;12.46;;;5.66;;
61473;SDS011;53694;49.784;30.150;2022-12-17T03:49:08;9.60;;;5.64;;
61473;SDS011;53694;49.784;30.150;2022-12-17T03:50:11;8.10;;;4.65;;
61473;SDS011;53694;49.784;30.150;2022-12-17T03:51:12;6.38;;;4.29;;
61473;SDS011;53694;49.784;30.150;2022-12-17T03:52:15;8.65;;;4.95;;
61473;SDS011;53694;49.784;30.150;2022-12-17T03:53:16;8.82;;;5.75;;
61473;SDS011;53694;49.784;30.150;2022-12-17T03:54:17;12.44;;;7.60;;
61473;SDS011;53694;49.784;30.150;2022-12-17T03:55:19;12.78;;;8.10;;
61473;SDS011;53694;49.784;30.150;2022-12-17T03:56:20;12.11;;;8.16;;
61473;SDS011;53694;49.784;30.150;2022-12-17T03:57:22;9.76;;;6.01;;
61473;SDS011;53694;49.784;30.150;2022-12-17T03:58:24;10.27;;;6.31;;
61473;SDS011;53694;49.784;30.150;2022-12-17T03:59:25;11.00;;;5.26;;
61473;SDS011;53694;49.784;30.150;2022-12-17T04:00:27;7.61;;;4.62;;
61473;SDS011;53694;49.784;30.150;2022-12-17T04:01:28;10.66;;;4.82;;
61473;SDS011;53694;49.784;30.150;2022-12-17T04:02:30;7.78;;;4.50;;
61473;SDS011;53694;49.784;30.150;2022-12-17T04:03:31;9.68;;;5.41;;
61473;SDS011;53694;49.784;30.150;2022-12-17T04:04:33;8.22;;;5.00;;
61473;SDS011;53694;49.784;30.150;2022-12-17T04:05:34;6.76;;;3.96;;
61473;SDS011;53694;49.784;30.150;2022-12-17T04:06:36;7.56;;;3.92;;
61473;SDS011;53694;49.784;30.150;2022-12-17T04:07:37;12.87;;;4.78;;
61473;SDS011;53694;49.784;30.150;2022-12-17T04:08:39;10.06;;;4.16;;
61473;SDS011;53694;49.784;30.150;2022-12-17T04:09:40;6.94;;;3.94;;
61473;SDS011;53694;49.784;30.150;2022-12-17T04:10:42;11.63;;;5.07;;
61473;SDS011;53694;49.784;30.150;2022-12-17T04:11:43;8.02;;;4.37;;
61473;SDS011;53694;49.784;30.150;2022-12-17T04:12:45;8.08;;;4.59;;
61473;SDS011;53694;49.784;30.150;2022-12-17T04:13:47;6.88;;;4.51;;
61473;SDS011;53694;49.784;30.150;2022-12-17T04:14:48;10.32;;;5.32;;
61473;SDS011;53694;49.784;30.150;2022-12-17T04:15:50;11.35;;;5.15;;
61473;SDS011;53694;49.784;30.150;2022-12-17T04:16:51;6.11;;;3.68;;
61473;SDS011;53694;49.784;30.150;2022-12-17T04:17:53;9.66;;;4.26;;
61473;SDS011;53694;49.784;30.150;2022-12-17T04:18:55;8.66;;;4.53;;
61473;SDS011;53694;49.784;30.150;2022-12-17T04:19:56;7.79;;;4.14;;
61473;SDS011;53694;49.784;30.150;2022-12-17T04:20:58;8.24;;;4.52;;
61473;SDS011;53694;49.784;30.150;2022-12-17T04:21:59;8.59;;;4.82;;
61473;SDS011;53694;49.784;30.150;2022-12-17T04:23:01;9.69;;;4.86;;
61473;SDS011;53694;49.784;30.150;2022-12-17T04:24:02;11.16;;;5.28;;
61473;SDS011;53694;49.784;30.150;2022-12-17T04:25:04;9.99;;;5.97;;
61473;SDS011;53694;49.784;30.150;2022-12-17T04:26:07;10.54;;;6.49;;
61473;SDS011;53694;49.784;30.150;2022-12-17T04:27:08;11.52;;;6.56;;
61473;SDS011;53694;49.784;30.150;2022-12-17T04:28:10;11.76;;;6.24;;
61473;SDS011;53694;49.784;30.150;2022-12-17T04:29:11;21.90;;;10.26;;
61473;SDS011;53694;49.784;30.150;2022-12-17T04:30:14;15.33;;;7.13;;
61473;SDS011;53694;49.784;30.150;2022-12-17T04:31:16;16.68;;;8.67;;
61473;SDS011;53694;49.784;30.150;2022-12-17T04:32:17;26.54;;;11.12;;
61473;SDS011;53694;49.784;30.150;2022-12-17T04:33:19;16.56;;;10.19;;
61473;SDS011;53694;49.784;30.150;2022-12-17T04:34:20;16.58;;;8.94;;
61473;SDS011;53694;49.784;30.150;2022-12-17T04:35:22;16.80;;;9.08;;
61473;SDS011;53694;49.784;30.150;2022-12-17T04:36:23;19.36;;;9.10;;
61473;SDS011;53694;49.784;30.150;2022-12-17T04:37:25;12.32;;;6.31;;
61473;SDS011;53694;49.784;30.150;2022-12-17T04:38:26;10.56;;;6.24;;
61473;SDS011;53694;49.784;30.150;2022-12-17T04:39:28;11.64;;;6.70;;
61473;SDS011;53694;49.784;30.150;2022-12-17T04:40:30;9.98;;;5.39;;
61473;SDS011;53694;49.784;30.150;2022-12-17T04:41:31;8.86;;;4.68;;
61473;SDS011;53694;49.784;30.150;2022-12-17T04:42:33;9.87;;;5.60;;
61473;SDS011;53694;49.784;30.150;2022-12-17T04:43:34;7.74;;;4.48;;
61473;SDS011;53694;49.784;30.150;2022-12-17T04:44:35;10.14;;;5.52;;
61473;SDS011;53694;49.784;30.150;2022-12-17T04:45:37;10.71;;;5.84;;
61473;SDS011;53694;49.784;30.150;2022-12-17T04:46:39;7.78;;;4.86;;
61473;SDS011;53694;49.784;30.150;2022-12-17T04:47:40;10.39;;;5.63;;
61473;SDS011;53694;49.784;30.150;2022-12-17T04:48:41;9.34;;;5.20;;
61473;SDS011;53694;49.784;30.150;2022-12-17T04:49:43;8.53;;;5.27;;
61473;SDS011;53694;49.784;30.150;2022-12-17T04:50:45;9.56;;;5.23;;
61473;SDS011;53694;49.784;30.150;2022-12-17T04:51:46;11.39;;;5.80;;
61473;SDS011;53694;49.784;30.150;2022-12-17T04:52:47;9.66;;;5.44;;
61473;SDS011;53694;49.784;30.150;2022-12-17T04:53:49;8.03;;;4.81;;
61473;SDS011;53694;49.784;30.150;2022-12-17T04:54:50;7.28;;;4.19;;
61473;SDS011;53694;49.784;30.150;2022-12-17T04:55:55;13.64;;;4.16;;
61473;SDS011;53694;49.784;30.150;2022-12-17T04:56:57;6.88;;;3.74;;
61473;SDS011;53694;49.784;30.150;2022-12-17T04:58:02;6.22;;;3.63;;
61473;SDS011;53694;49.784;30.150;2022-12-17T04:59:05;10.49;;;4.34;;
61473;SDS011;53694;49.784;30.150;2022-12-17T05:00:08;6.85;;;3.45;;
61473;SDS011;53694;49.784;30.150;2022-12-17T05:01:10;7.04;;;3.36;;
61473;SDS011;53694;49.784;30.150;2022-12-17T05:02:12;6.76;;;3.73;;
61473;SDS011;53694;49.784;30.150;2022-12-17T05:03:14;7.14;;;3.64;;
61473;SDS011;53694;49.784;30.150;2022-12-17T05:04:16;7.48;;;3.67;;
61473;SDS011;53694;49.784;30.150;2022-12-17T05:05:18;6.47;;;3.27;;
61473;SDS011;53694;49.784;30.150;2022-12-17T05:06:20;5.22;;;2.29;;
61473;SDS011;53694;49.784;30.150;2022-12-17T05:07:21;5.01;;;2.31;;
61473;SDS011;53694;49.784;30.150;2022-12-17T05:08:23;4.81;;;2.39;;
61473;SDS011;53694;49.784;30.150;2022-12-17T05:09:24;6.56;;;3.58;;
61473;SDS011;53694;49.784;30.150;2022-12-17T05:10:26;8.09;;;3.53;;
61473;SDS011;53694;49.784;30.150;2022-12-17T05:11:27;6.16;;;3.42;;
61473;SDS011;53694;49.784;30.150;2022-12-17T05:12:29;6.16;;;3.33;;
61473;SDS011;53694;49.784;30.150;2022-12-17T05:13:30;6.83;;;2.84;;
61473;SDS011;53694;49.784;30.150;2022-12-17T05:14:32;6.61;;;3.66;;
61473;SDS011;53694;49.784;30.150;2022-12-17T05:15:33;8.02;;;4.06;;
61473;SDS011;53694;49.784;30.150;2022-12-17T05:16:35;9.46;;;4.31;;
61473;SDS011;53694;49.784;30.150;2022-12-17T05:17:36;7.58;;;3.93;;
61473;SDS011;53694;49.784;30.150;2022-12-17T05:18:38;9.26;;;4.46;;
61473;SDS011;53694;49.784;30.150;2022-12-17T05:19:39;25.65;;;8.20;;
61473;SDS011;53694;49.784;30.150;2022-12-17T05:20:41;10.83;;;5.78;;
61473;SDS011;53694;49.784;30.150;2022-12-17T05:21:42;11.49;;;5.68;;
61473;SDS011;53694;49.784;30.150;2022-12-17T05:22:44;8.92;;;4.27;;
61473;SDS011;53694;49.784;30.150;2022-12-17T05:23:45;9.78;;;5.27;;
61473;SDS011;53694;49.784;30.150;2022-12-17T05:24:46;9.94;;;5.37;;
61473;SDS011;53694;49.784;30.150;2022-12-17T05:25:48;13.44;;;5.77;;
61473;SDS011;53694;49.784;30.150;2022-12-17T05:26:51;11.30;;;5.81;;
61473;SDS011;53694;49.784;30.150;2022-12-17T05:27:53;10.61;;;5.59;;
61473;SDS011;53694;49.784;30.150;2022-12-17T05:28:55;11.22;;;6.05;;
61473;SDS011;53694;49.784;30.150;2022-12-17T05:29:56;12.33;;;5.61;;
61473;SDS011;53694;49.784;30.150;2022-12-17T05:30:58;12.52;;;5.83;;
61473;SDS011;53694;49.784;30.150;2022-12-17T05:31:59;11.57;;;5.43;;
61473;SDS011;53694;49.784;30.150;2022-12-17T05:33:01;10.20;;;5.96;;
61473;SDS011;53694;49.784;30.150;2022-12-17T05:34:04;12.57;;;5.89;;
61473;SDS011;53694;49.784;30.150;2022-12-17T05:35:06;12.41;;;6.24;;
61473;SDS011;53694;49.784;30.150;2022-12-17T05:36:11;14.84;;;6.99;;
61473;SDS011;53694;49.784;30.150;2022-12-17T05:37:13;16.15;;;8.39;;
61473;SDS011;53694;49.784;30.150;2022-12-17T05:38:14;16.40;;;8.35;;
61473;SDS011;53694;49.784;30.150;2022-12-17T05:39:16;16.90;;;9.04;;
61473;SDS011;53694;49.784;30.150;2022-12-17T05:40:17;20.85;;;10.24;;
61473;SDS011;53694;49.784;30.150;2022-12-17T05:41:19;20.75;;;9.55;;
61473;SDS011;53694;49.784;30.150;2022-12-17T05:42:23;16.26;;;8.51;;
61473;SDS011;53694;49.784;30.150;2022-12-17T05:43:25;15.84;;;8.45;;
61473;SDS011;53694;49.784;30.150;2022-12-17T05:44:26;13.72;;;6.69;;
61473;SDS011;53694;49.784;30.150;2022-12-17T05:45:27;13.19;;;7.14;;
61473;SDS011;53694;49.784;30.150;2022-12-17T05:46:29;12.13;;;6.47;;
61473;SDS011;53694;49.784;30.150;2022-12-17T05:47:31;13.94;;;7.12;;
61473;SDS011;53694;49.784;30.150;2022-12-17T05:48:33;11.99;;;6.65;;
61473;SDS011;53694;49.784;30.150;2022-12-17T05:49:35;9.98;;;5.44;;
61473;SDS011;53694;49.784;30.150;2022-12-17T05:50:36;12.65;;;5.89;;
61473;SDS011;53694;49.784;30.150;2022-12-17T05:51:38;10.81;;;5.45;;
61473;SDS011;53694;49.784;30.150;2022-12-17T05:52:39;9.75;;;5.69;;
61473;SDS011;53694;49.784;30.150;2022-12-17T05:53:41;12.55;;;6.57;;
61473;SDS011;53694;49.784;30.150;2022-12-17T05:54:42;13.39;;;7.10;;
61473;SDS011;53694;49.784;30.150;2022-12-17T05:55:46;20.00;;;7.76;;
61473;SDS011;53694;49.784;30.150;2022-12-17T05:56:53;19.32;;;8.78;;
61473;SDS011;53694;49.784;30.150;2022-12-17T05:58:06;26.19;;;10.21;;
61473;SDS011;53694;49.784;30.150;2022-12-17T05:59:05;31.48;;;10.39;;
61473;SDS011;53694;49.784;30.150;2022-12-17T06:00:08;32.90;;;10.92;;
61473;SDS011;53694;49.784;30.150;2022-12-17T06:01:10;26.21;;;10.73;;
61473;SDS011;53694;49.784;30.150;2022-12-17T06:02:11;20.10;;;9.43;;
61473;SDS011;53694;49.784;30.150;2022-12-17T06:03:13;16.31;;;8.26;;
61473;SDS011;53694;49.784;30.150;2022-12-17T06:04:15;17.93;;;8.70;;
61473;SDS011;53694;49.784;30.150;2022-12-17T06:05:16;18.71;;;8.84;;
61473;SDS011;53694;49.784;30.150;2022-12-17T06:06:18;18.07;;;8.03;;
61473;SDS011;53694;49.784;30.150;2022-12-17T06:07:20;18.44;;;8.75;;
61473;SDS011;53694;49.784;30.150;2022-12-17T06:08:21;16.93;;;7.79;;
61473;SDS011;53694;49.784;30.150;2022-12-17T06:09:22;17.33;;;8.90;;
61473;SDS011;53694;49.784;30.150;2022-12-17T06:10:24;19.18;;;8.93;;
61473;SDS011;53694;49.784;30.150;2022-12-17T06:11:26;19.94;;;8.99;;
61473;SDS011;53694;49.784;30.150;2022-12-17T06:12:27;17.87;;;8.09;;
61473;SDS011;53694;49.784;30.150;2022-12-17T06:13:29;16.69;;;8.21;;
61473;SDS011;53694;49.784;30.150;2022-12-17T06:14:30;13.54;;;7.03;;
61473;SDS011;53694;49.784;30.150;2022-12-17T06:15:32;14.03;;;7.38;;
61473;SDS011;53694;49.784;30.150;2022-12-17T06:16:33;13.42;;;6.93;;